sensor_id;sensor_type;location;lat;lon;timestamp;P1;durP1;ratioP1;P2;durP2;ratioP2
22826;SDS011;11580;52.562;13.418;2023-04-01T00:01:48;3.07;;;2.77;;
22826;SDS011;11580;52.562;13.418;2023-04-01T00:04:15;2.10;;;1.90;;
22826;SDS011;11580;52.562;13.418;2023-04-01T00:06:43;2.17;;;2.00;;
22826;SDS011;11580;52.562;13.418;2023-04-01T00:09:10;2.33;;;2.13;;
22826;SDS011;11580;52.562;13.418;2023-04-01T00:11:38;2.70;;;2.50;;
22826;SDS011;11580;52.562;13.418;2023-04-01T00:14:06;2.40;;;2.27;;
22826;SDS011;11580;52.562;13.418;2023-04-01T00:16:34;2.47;;;2.27;;
22826;SDS011;11580;52.562;13.418;2023-04-01T00:19:01;3.20;;;2.40;;
22826;SDS011;11580;52.562;13.418;2023-04-01T00:21:29;2.40;;;2.20;;
22826;SDS011;11580;52.562;13.418;2023-04-01T00:23:56;2.33;;;2.13;;
22826;SDS011;11580;52.562;13.418;2023-04-01T00:26:24;2.60;;;2.40;;
22826;SDS011;11580;52.562;13.418;2023-04-01T00:28:53;2.23;;;2.00;;
22826;SDS011;11580;52.562;13.418;2023-04-01T00:31:20;2.43;;;2.23;;
22826;SDS011;11580;52.562;13.418;2023-04-01T00:33:47;2.40;;;2.20;;
22826;SDS011;11580;52.562;13.418;2023-04-01T00:36:15;3.03;;;2.73;;
22826;SDS011;11580;52.562;13.418;2023-04-01T00:38:44;2.33;;;2.13;;
22826;SDS011;11580;52.562;13.418;2023-04-01T00:41:12;3.93;;;2.20;;
22826;SDS011;11580;52.562;13.418;2023-04-01T00:43:42;3.33;;;2.00;;
22826;SDS011;11580;52.562;13.418;2023-04-01T00:46:12;2.60;;;2.40;;
22826;SDS011;11580;52.562;13.418;2023-04-01T00:48:41;2.40;;;2.13;;
22826;SDS011;11580;52.562;13.418;2023-04-01T00:51:14;2.63;;;2.43;;
22826;SDS011;11580;52.562;13.418;2023-04-01T00:53:48;2.80;;;2.60;;
22826;SDS011;11580;52.562;13.418;2023-04-01T00:56:22;2.70;;;2.50;;
22826;SDS011;11580;52.562;13.418;2023-04-01T00:58:54;2.60;;;2.40;;
22826;SDS011;11580;52.562;13.418;2023-04-01T01:01:28;2.40;;;2.20;;
22826;SDS011;11580;52.562;13.418;2023-04-01T01:03:57;2.30;;;2.20;;
22826;SDS011;11580;52.562;13.418;2023-04-01T01:06:26;2.30;;;2.10;;
22826;SDS011;11580;52.562;13.418;2023-04-01T01:09:18;2.13;;;2.03;;
22826;SDS011;11580;52.562;13.418;2023-04-01T01:12:07;2.70;;;2.50;;
22826;SDS011;11580;52.562;13.418;2023-04-01T01:14:44;2.93;;;2.60;;
22826;SDS011;11580;52.562;13.418;2023-04-01T01:17:29;2.50;;;2.30;;
22826;SDS011;11580;52.562;13.418;2023-04-01T01:20:29;2.30;;;2.10;;
22826;SDS011;11580;52.562;13.418;2023-04-01T01:26:47;2.53;;;2.20;;
22826;SDS011;11580;52.562;13.418;2023-04-01T01:29:40;2.10;;;2.00;;
22826;SDS011;11580;52.562;13.418;2023-04-01T01:32:35;2.50;;;2.30;;
22826;SDS011;11580;52.562;13.418;2023-04-01T01:35:27;2.77;;;2.20;;
22826;SDS011;11580;52.562;13.418;2023-04-01T01:38:08;2.93;;;2.37;;
22826;SDS011;11580;52.562;13.418;2023-04-01T01:40:46;2.37;;;2.17;;
22826;SDS011;11580;52.562;13.418;2023-04-01T01:43:21;2.70;;;2.50;;
22826;SDS011;11580;52.562;13.418;2023-04-01T01:45:52;3.40;;;2.57;;
22826;SDS011;11580;52.562;13.418;2023-04-01T01:48:26;2.53;;;2.33;;
22826;SDS011;11580;52.562;13.418;2023-04-01T01:50:59;2.90;;;2.70;;
22826;SDS011;11580;52.562;13.418;2023-04-01T01:53:27;2.80;;;2.60;;
22826;SDS011;11580;52.562;13.418;2023-04-01T01:55:54;3.53;;;2.93;;
22826;SDS011;11580;52.562;13.418;2023-04-01T01:58:22;2.87;;;2.67;;
22826;SDS011;11580;52.562;13.418;2023-04-01T02:00:57;2.87;;;2.67;;
22826;SDS011;11580;52.562;13.418;2023-04-01T02:03:29;2.60;;;2.50;;
22826;SDS011;11580;52.562;13.418;2023-04-01T02:06:03;2.63;;;2.40;;
22826;SDS011;11580;52.562;13.418;2023-04-01T02:08:36;2.40;;;2.30;;
22826;SDS011;11580;52.562;13.418;2023-04-01T02:11:11;2.87;;;2.67;;
22826;SDS011;11580;52.562;13.418;2023-04-01T02:13:48;3.33;;;2.70;;
22826;SDS011;11580;52.562;13.418;2023-04-01T02:16:22;2.60;;;2.40;;
22826;SDS011;11580;52.562;13.418;2023-04-01T02:18:55;2.50;;;2.30;;
22826;SDS011;11580;52.562;13.418;2023-04-01T02:21:27;2.10;;;2.00;;
22826;SDS011;11580;52.562;13.418;2023-04-01T02:23:58;2.33;;;2.10;;
22826;SDS011;11580;52.562;13.418;2023-04-01T02:26:32;2.43;;;2.23;;
22826;SDS011;11580;52.562;13.418;2023-04-01T02:29:01;2.20;;;2.10;;
22826;SDS011;11580;52.562;13.418;2023-04-01T02:31:31;2.20;;;2.00;;
22826;SDS011;11580;52.562;13.418;2023-04-01T02:34:00;2.10;;;1.90;;
22826;SDS011;11580;52.562;13.418;2023-04-01T02:36:30;2.80;;;2.60;;
22826;SDS011;11580;52.562;13.418;2023-04-01T02:38:58;3.00;;;2.23;;
22826;SDS011;11580;52.562;13.418;2023-04-01T02:41:27;3.13;;;2.10;;
22826;SDS011;11580;52.562;13.418;2023-04-01T02:43:54;2.40;;;2.20;;
22826;SDS011;11580;52.562;13.418;2023-04-01T02:46:22;2.50;;;2.30;;
22826;SDS011;11580;52.562;13.418;2023-04-01T02:48:49;2.47;;;2.20;;
22826;SDS011;11580;52.562;13.418;2023-04-01T02:51:17;1.83;;;1.70;;
22826;SDS011;11580;52.562;13.418;2023-04-01T02:53:45;2.00;;;1.60;;
22826;SDS011;11580;52.562;13.418;2023-04-01T02:56:12;2.00;;;1.90;;
22826;SDS011;11580;52.562;13.418;2023-04-01T02:58:40;2.07;;;1.87;;
22826;SDS011;11580;52.562;13.418;2023-04-01T03:01:07;2.07;;;1.97;;
22826;SDS011;11580;52.562;13.418;2023-04-01T03:03:34;2.67;;;1.93;;
22826;SDS011;11580;52.562;13.418;2023-04-01T03:06:04;2.20;;;2.00;;
22826;SDS011;11580;52.562;13.418;2023-04-01T03:08:33;2.00;;;1.90;;
22826;SDS011;11580;52.562;13.418;2023-04-01T03:11:01;2.77;;;2.57;;
22826;SDS011;11580;52.562;13.418;2023-04-01T03:13:32;2.53;;;2.20;;
22826;SDS011;11580;52.562;13.418;2023-04-01T03:15:59;3.07;;;2.30;;
22826;SDS011;11580;52.562;13.418;2023-04-01T03:18:27;2.27;;;2.07;;
22826;SDS011;11580;52.562;13.418;2023-04-01T03:20:55;3.53;;;2.50;;
22826;SDS011;11580;52.562;13.418;2023-04-01T03:23:23;2.60;;;2.40;;
22826;SDS011;11580;52.562;13.418;2023-04-01T03:25:50;2.50;;;2.30;;
22826;SDS011;11580;52.562;13.418;2023-04-01T03:28:19;2.53;;;2.20;;
22826;SDS011;11580;52.562;13.418;2023-04-01T03:30:46;3.20;;;2.90;;
22826;SDS011;11580;52.562;13.418;2023-04-01T03:33:13;2.13;;;1.93;;
22826;SDS011;11580;52.562;13.418;2023-04-01T03:35:41;2.87;;;2.30;;
22826;SDS011;11580;52.562;13.418;2023-04-01T03:38:08;2.87;;;2.20;;
22826;SDS011;11580;52.562;13.418;2023-04-01T03:40:35;2.80;;;2.40;;
22826;SDS011;11580;52.562;13.418;2023-04-01T03:43:04;1.90;;;1.80;;
22826;SDS011;11580;52.562;13.418;2023-04-01T03:45:35;2.83;;;2.17;;
22826;SDS011;11580;52.562;13.418;2023-04-01T03:48:09;2.30;;;2.10;;
22826;SDS011;11580;52.562;13.418;2023-04-01T03:50:37;2.80;;;2.60;;
22826;SDS011;11580;52.562;13.418;2023-04-01T03:53:04;2.10;;;1.90;;
22826;SDS011;11580;52.562;13.418;2023-04-01T03:55:31;3.40;;;2.30;;
22826;SDS011;11580;52.562;13.418;2023-04-01T03:57:59;2.00;;;1.70;;
22826;SDS011;11580;52.562;13.418;2023-04-01T04:00:27;3.60;;;2.20;;
22826;SDS011;11580;52.562;13.418;2023-04-01T04:02:56;2.60;;;2.30;;
22826;SDS011;11580;52.562;13.418;2023-04-01T04:05:30;2.23;;;2.03;;
22826;SDS011;11580;52.562;13.418;2023-04-01T04:07:57;2.70;;;2.20;;
22826;SDS011;11580;52.562;13.418;2023-04-01T04:10:25;2.67;;;2.47;;
22826;SDS011;11580;52.562;13.418;2023-04-01T04:12:54;3.03;;;1.93;;
22826;SDS011;11580;52.562;13.418;2023-04-01T04:15:23;4.27;;;2.30;;
22826;SDS011;11580;52.562;13.418;2023-04-01T04:17:51;3.03;;;2.27;;
22826;SDS011;11580;52.562;13.418;2023-04-01T04:20:19;2.33;;;2.13;;
22826;SDS011;11580;52.562;13.418;2023-04-01T04:22:47;3.57;;;2.63;;
22826;SDS011;11580;52.562;13.418;2023-04-01T04:25:14;2.57;;;2.37;;
22826;SDS011;11580;52.562;13.418;2023-04-01T04:27:43;2.80;;;2.50;;
22826;SDS011;11580;52.562;13.418;2023-04-01T04:30:12;3.07;;;2.40;;
22826;SDS011;11580;52.562;13.418;2023-04-01T04:32:40;5.23;;;2.97;;
22826;SDS011;11580;52.562;13.418;2023-04-01T04:35:09;2.20;;;2.00;;
22826;SDS011;11580;52.562;13.418;2023-04-01T04:37:37;2.87;;;2.67;;
22826;SDS011;11580;52.562;13.418;2023-04-01T04:40:06;4.17;;;2.70;;
22826;SDS011;11580;52.562;13.418;2023-04-01T04:42:35;3.53;;;3.10;;
22826;SDS011;11580;52.562;13.418;2023-04-01T04:45:08;2.67;;;2.47;;
22826;SDS011;11580;52.562;13.418;2023-04-01T04:47:41;2.60;;;2.40;;
22826;SDS011;11580;52.562;13.418;2023-04-01T04:50:09;2.87;;;2.60;;
22826;SDS011;11580;52.562;13.418;2023-04-01T04:52:40;3.73;;;3.43;;
22826;SDS011;11580;52.562;13.418;2023-04-01T04:55:07;2.80;;;2.60;;
22826;SDS011;11580;52.562;13.418;2023-04-01T04:57:35;3.13;;;2.83;;
22826;SDS011;11580;52.562;13.418;2023-04-01T05:00:02;3.80;;;2.70;;
22826;SDS011;11580;52.562;13.418;2023-04-01T05:02:43;3.90;;;2.87;;
22826;SDS011;11580;52.562;13.418;2023-04-01T05:05:10;3.53;;;3.23;;
22826;SDS011;11580;52.562;13.418;2023-04-01T05:07:39;3.50;;;3.23;;
22826;SDS011;11580;52.562;13.418;2023-04-01T05:10:07;3.50;;;3.30;;
22826;SDS011;11580;52.562;13.418;2023-04-01T05:12:35;4.87;;;3.47;;
22826;SDS011;11580;52.562;13.418;2023-04-01T05:15:05;3.13;;;2.40;;
22826;SDS011;11580;52.562;13.418;2023-04-01T05:17:34;3.63;;;3.37;;
22826;SDS011;11580;52.562;13.418;2023-04-01T05:20:03;3.60;;;2.90;;
22826;SDS011;11580;52.562;13.418;2023-04-01T05:22:32;3.50;;;3.20;;
22826;SDS011;11580;52.562;13.418;2023-04-01T05:25:00;3.00;;;2.80;;
22826;SDS011;11580;52.562;13.418;2023-04-01T05:27:28;4.00;;;3.70;;
22826;SDS011;11580;52.562;13.418;2023-04-01T05:29:55;5.83;;;4.00;;
22826;SDS011;11580;52.562;13.418;2023-04-01T05:32:37;3.40;;;3.20;;
22826;SDS011;11580;52.562;13.418;2023-04-01T05:35:05;3.57;;;3.30;;
22826;SDS011;11580;52.562;13.418;2023-04-01T05:37:34;4.27;;;3.33;;
22826;SDS011;11580;52.562;13.418;2023-04-01T05:40:05;3.77;;;3.40;;
22826;SDS011;11580;52.562;13.418;2023-04-01T05:42:33;4.17;;;3.30;;
22826;SDS011;11580;52.562;13.418;2023-04-01T05:45:01;3.70;;;3.30;;
22826;SDS011;11580;52.562;13.418;2023-04-01T05:47:46;3.90;;;3.60;;
22826;SDS011;11580;52.562;13.418;2023-04-01T05:50:14;3.70;;;3.40;;
22826;SDS011;11580;52.562;13.418;2023-04-01T05:52:41;3.90;;;3.60;;
22826;SDS011;11580;52.562;13.418;2023-04-01T05:55:11;4.20;;;3.67;;
22826;SDS011;11580;52.562;13.418;2023-04-01T05:57:38;3.90;;;3.60;;
22826;SDS011;11580;52.562;13.418;2023-04-01T06:00:06;3.50;;;3.20;;
22826;SDS011;11580;52.562;13.418;2023-04-01T06:02:39;4.33;;;3.93;;
22826;SDS011;11580;52.562;13.418;2023-04-01T06:05:11;4.37;;;3.63;;
22826;SDS011;11580;52.562;13.418;2023-04-01T06:07:43;3.87;;;3.57;;
22826;SDS011;11580;52.562;13.418;2023-04-01T06:10:16;4.50;;;4.00;;
22826;SDS011;11580;52.562;13.418;2023-04-01T06:12:48;3.93;;;3.63;;
22826;SDS011;11580;52.562;13.418;2023-04-01T06:15:28;4.27;;;3.90;;
22826;SDS011;11580;52.562;13.418;2023-04-01T06:18:12;4.50;;;3.80;;
22826;SDS011;11580;52.562;13.418;2023-04-01T06:21:29;5.60;;;3.63;;
22826;SDS011;11580;52.562;13.418;2023-04-01T06:24:41;9.60;;;3.93;;
22826;SDS011;11580;52.562;13.418;2023-04-01T06:31:29;3.50;;;3.20;;
22826;SDS011;11580;52.562;13.418;2023-04-01T06:37:45;4.77;;;4.03;;
22826;SDS011;11580;52.562;13.418;2023-04-01T06:40:55;5.03;;;4.00;;
22826;SDS011;11580;52.562;13.418;2023-04-01T06:43:57;4.30;;;3.90;;
22826;SDS011;11580;52.562;13.418;2023-04-01T06:47:01;4.40;;;4.00;;
22826;SDS011;11580;52.562;13.418;2023-04-01T06:50:11;6.30;;;4.87;;
22826;SDS011;11580;52.562;13.418;2023-04-01T06:53:12;4.57;;;4.17;;
22826;SDS011;11580;52.562;13.418;2023-04-01T06:56:13;7.03;;;4.50;;
22826;SDS011;11580;52.562;13.418;2023-04-01T06:58:59;5.50;;;5.00;;
22826;SDS011;11580;52.562;13.418;2023-04-01T07:01:32;5.33;;;4.87;;
22826;SDS011;11580;52.562;13.418;2023-04-01T07:04:06;6.23;;;4.80;;
22826;SDS011;11580;52.562;13.418;2023-04-01T07:06:42;4.47;;;4.17;;
22826;SDS011;11580;52.562;13.418;2023-04-01T07:09:18;4.90;;;4.50;;
22826;SDS011;11580;52.562;13.418;2023-04-01T07:12:26;4.83;;;4.43;;
22826;SDS011;11580;52.562;13.418;2023-04-01T07:15:37;4.93;;;4.53;;
22826;SDS011;11580;52.562;13.418;2023-04-01T07:18:12;5.53;;;5.13;;
22826;SDS011;11580;52.562;13.418;2023-04-01T07:20:45;5.37;;;4.87;;
22826;SDS011;11580;52.562;13.418;2023-04-01T07:23:16;5.63;;;5.07;;
22826;SDS011;11580;52.562;13.418;2023-04-01T07:26:13;5.80;;;5.30;;
22826;SDS011;11580;52.562;13.418;2023-04-01T07:29:05;6.83;;;5.43;;
22826;SDS011;11580;52.562;13.418;2023-04-01T07:32:13;6.00;;;5.40;;
22826;SDS011;11580;52.562;13.418;2023-04-01T07:35:09;4.97;;;4.57;;
22826;SDS011;11580;52.562;13.418;2023-04-01T07:37:57;4.90;;;4.40;;
22826;SDS011;11580;52.562;13.418;2023-04-01T07:40:43;3.77;;;3.47;;
22826;SDS011;11580;52.562;13.418;2023-04-01T07:46:30;4.07;;;3.67;;
22826;SDS011;11580;52.562;13.418;2023-04-01T07:49:15;5.20;;;4.03;;
22826;SDS011;11580;52.562;13.418;2023-04-01T07:51:52;5.07;;;4.60;;
22826;SDS011;11580;52.562;13.418;2023-04-01T07:54:30;4.40;;;4.00;;
22826;SDS011;11580;52.562;13.418;2023-04-01T07:57:07;3.17;;;2.97;;
22826;SDS011;11580;52.562;13.418;2023-04-01T07:59:51;3.10;;;2.80;;
22826;SDS011;11580;52.562;13.418;2023-04-01T08:02:52;3.37;;;3.07;;
22826;SDS011;11580;52.562;13.418;2023-04-01T08:05:41;3.20;;;2.90;;
22826;SDS011;11580;52.562;13.418;2023-04-01T08:08:23;3.57;;;3.27;;
22826;SDS011;11580;52.562;13.418;2023-04-01T08:11:27;4.03;;;3.60;;
22826;SDS011;11580;52.562;13.418;2023-04-01T08:14:46;5.50;;;5.10;;
22826;SDS011;11580;52.562;13.418;2023-04-01T08:17:45;4.47;;;4.07;;
22826;SDS011;11580;52.562;13.418;2023-04-01T08:20:28;7.40;;;6.80;;
22826;SDS011;11580;52.562;13.418;2023-04-01T08:23:11;5.87;;;5.37;;
22826;SDS011;11580;52.562;13.418;2023-04-01T08:25:44;6.53;;;6.03;;
22826;SDS011;11580;52.562;13.418;2023-04-01T08:28:23;5.73;;;5.27;;
22826;SDS011;11580;52.562;13.418;2023-04-01T08:31:03;7.17;;;6.57;;
22826;SDS011;11580;52.562;13.418;2023-04-01T08:33:36;6.90;;;6.30;;
22826;SDS011;11580;52.562;13.418;2023-04-01T08:36:10;7.90;;;7.20;;
22826;SDS011;11580;52.562;13.418;2023-04-01T08:38:49;6.80;;;6.20;;
22826;SDS011;11580;52.562;13.418;2023-04-01T08:41:39;8.03;;;7.37;;
22826;SDS011;11580;52.562;13.418;2023-04-01T08:45:05;8.73;;;7.90;;
22826;SDS011;11580;52.562;13.418;2023-04-01T08:48:04;10.50;;;9.50;;
22826;SDS011;11580;52.562;13.418;2023-04-01T08:51:31;8.97;;;8.17;;
22826;SDS011;11580;52.562;13.418;2023-04-01T08:54:38;9.40;;;8.70;;
22826;SDS011;11580;52.562;13.418;2023-04-01T08:57:45;9.83;;;8.97;;
22826;SDS011;11580;52.562;13.418;2023-04-01T09:00:43;10.47;;;9.57;;
22826;SDS011;11580;52.562;13.418;2023-04-01T09:03:38;10.43;;;9.50;;
22826;SDS011;11580;52.562;13.418;2023-04-01T09:06:43;13.60;;;12.40;;
22826;SDS011;11580;52.562;13.418;2023-04-01T09:12:54;11.37;;;10.37;;
22826;SDS011;11580;52.562;13.418;2023-04-01T09:15:54;10.40;;;9.50;;
22826;SDS011;11580;52.562;13.418;2023-04-01T09:19:00;11.70;;;10.80;;
22826;SDS011;11580;52.562;13.418;2023-04-01T09:22:01;11.80;;;10.87;;
22826;SDS011;11580;52.562;13.418;2023-04-01T09:24:59;11.07;;;10.17;;
22826;SDS011;11580;52.562;13.418;2023-04-01T09:27:52;12.03;;;11.03;;
22826;SDS011;11580;52.562;13.418;2023-04-01T09:30:35;11.83;;;10.83;;
22826;SDS011;11580;52.562;13.418;2023-04-01T09:37:09;11.67;;;10.67;;
22826;SDS011;11580;52.562;13.418;2023-04-01T09:39:55;9.90;;;9.03;;
22826;SDS011;11580;52.562;13.418;2023-04-01T09:42:56;10.27;;;9.47;;
22826;SDS011;11580;52.562;13.418;2023-04-01T09:45:44;10.20;;;9.40;;
22826;SDS011;11580;52.562;13.418;2023-04-01T09:48:38;10.00;;;9.20;;
22826;SDS011;11580;52.562;13.418;2023-04-01T09:51:46;11.23;;;10.27;;
22826;SDS011;11580;52.562;13.418;2023-04-01T09:54:36;12.10;;;11.13;;
22826;SDS011;11580;52.562;13.418;2023-04-01T10:01:03;10.00;;;9.20;;
22826;SDS011;11580;52.562;13.418;2023-04-01T10:04:26;10.80;;;9.80;;
22826;SDS011;11580;52.562;13.418;2023-04-01T10:07:48;11.23;;;10.33;;
22826;SDS011;11580;52.562;13.418;2023-04-01T10:11:04;9.67;;;8.97;;
22826;SDS011;11580;52.562;13.418;2023-04-01T10:14:12;10.83;;;9.93;;
22826;SDS011;11580;52.562;13.418;2023-04-01T10:17:31;11.03;;;10.13;;
22826;SDS011;11580;52.562;13.418;2023-04-01T10:20:46;12.17;;;11.17;;
22826;SDS011;11580;52.562;13.418;2023-04-01T10:24:12;12.90;;;11.77;;
22826;SDS011;11580;52.562;13.418;2023-04-01T10:27:10;12.43;;;11.30;;
22826;SDS011;11580;52.562;13.418;2023-04-01T10:36:58;12.77;;;11.73;;
22826;SDS011;11580;52.562;13.418;2023-04-01T10:43:41;13.20;;;12.10;;
22826;SDS011;11580;52.562;13.418;2023-04-01T10:54:39;12.80;;;11.80;;
22826;SDS011;11580;52.562;13.418;2023-04-01T10:57:47;12.30;;;11.30;;
22826;SDS011;11580;52.562;13.418;2023-04-01T11:04:57;11.07;;;10.17;;
22826;SDS011;11580;52.562;13.418;2023-04-01T11:21:59;11.73;;;10.80;;
22826;SDS011;11580;52.562;13.418;2023-04-01T11:25:29;10.80;;;10.00;;
22826;SDS011;11580;52.562;13.418;2023-04-01T11:31:58;12.27;;;11.37;;
22826;SDS011;11580;52.562;13.418;2023-04-01T11:37:41;11.97;;;10.97;;
22826;SDS011;11580;52.562;13.418;2023-04-01T11:40:56;11.80;;;10.80;;
22826;SDS011;11580;52.562;13.418;2023-04-01T11:44:04;11.97;;;11.07;;
22826;SDS011;11580;52.562;13.418;2023-04-01T11:47:06;12.17;;;11.27;;
22826;SDS011;11580;52.562;13.418;2023-04-01T11:49:57;12.40;;;11.40;;
22826;SDS011;11580;52.562;13.418;2023-04-01T11:52:58;11.80;;;10.90;;
22826;SDS011;11580;52.562;13.418;2023-04-01T11:55:39;11.40;;;10.57;;
22826;SDS011;11580;52.562;13.418;2023-04-01T11:58:32;12.10;;;11.20;;
22826;SDS011;11580;52.562;13.418;2023-04-01T12:01:38;11.30;;;10.40;;
22826;SDS011;11580;52.562;13.418;2023-04-01T12:07:24;12.50;;;11.50;;
22826;SDS011;11580;52.562;13.418;2023-04-01T12:10:20;11.00;;;10.20;;
22826;SDS011;11580;52.562;13.418;2023-04-01T12:17:03;10.43;;;9.63;;
22826;SDS011;11580;52.562;13.418;2023-04-01T12:19:47;12.53;;;11.63;;
22826;SDS011;11580;52.562;13.418;2023-04-01T12:22:28;10.50;;;9.70;;
22826;SDS011;11580;52.562;13.418;2023-04-01T12:25:19;11.57;;;10.67;;
22826;SDS011;11580;52.562;13.418;2023-04-01T12:28:06;11.23;;;10.40;;
22826;SDS011;11580;52.562;13.418;2023-04-01T12:30:50;10.57;;;9.77;;
22826;SDS011;11580;52.562;13.418;2023-04-01T12:36:44;12.10;;;11.20;;
22826;SDS011;11580;52.562;13.418;2023-04-01T12:39:33;12.37;;;11.37;;
22826;SDS011;11580;52.562;13.418;2023-04-01T12:42:59;12.23;;;11.20;;
22826;SDS011;11580;52.562;13.418;2023-04-01T12:45:54;12.60;;;11.60;;
22826;SDS011;11580;52.562;13.418;2023-04-01T12:52:07;13.13;;;12.03;;
22826;SDS011;11580;52.562;13.418;2023-04-01T12:54:46;13.90;;;12.77;;
22826;SDS011;11580;52.562;13.418;2023-04-01T12:57:45;12.57;;;11.47;;
22826;SDS011;11580;52.562;13.418;2023-04-01T13:00:38;14.27;;;13.07;;
22826;SDS011;11580;52.562;13.418;2023-04-01T13:03:28;13.23;;;12.17;;
22826;SDS011;11580;52.562;13.418;2023-04-01T13:06:25;14.20;;;12.90;;
22826;SDS011;11580;52.562;13.418;2023-04-01T13:09:11;14.17;;;13.07;;
22826;SDS011;11580;52.562;13.418;2023-04-01T13:11:59;12.87;;;11.83;;
22826;SDS011;11580;52.562;13.418;2023-04-01T13:14:51;12.70;;;11.67;;
22826;SDS011;11580;52.562;13.418;2023-04-01T13:17:49;12.70;;;11.70;;
22826;SDS011;11580;52.562;13.418;2023-04-01T13:20:28;12.40;;;11.40;;
22826;SDS011;11580;52.562;13.418;2023-04-01T13:23:13;12.07;;;11.07;;
22826;SDS011;11580;52.562;13.418;2023-04-01T13:26:04;13.40;;;12.30;;
22826;SDS011;11580;52.562;13.418;2023-04-01T13:28:45;14.07;;;12.87;;
22826;SDS011;11580;52.562;13.418;2023-04-01T13:31:27;13.80;;;12.60;;
22826;SDS011;11580;52.562;13.418;2023-04-01T13:34:22;13.60;;;12.47;;
22826;SDS011;11580;52.562;13.418;2023-04-01T13:37:10;12.60;;;11.60;;
22826;SDS011;11580;52.562;13.418;2023-04-01T13:40:10;11.90;;;11.00;;
22826;SDS011;11580;52.562;13.418;2023-04-01T13:42:56;11.17;;;10.17;;
22826;SDS011;11580;52.562;13.418;2023-04-01T13:45:32;10.60;;;9.70;;
22826;SDS011;11580;52.562;13.418;2023-04-01T13:48:26;10.10;;;9.30;;
22826;SDS011;11580;52.562;13.418;2023-04-01T13:51:13;8.33;;;7.73;;
22826;SDS011;11580;52.562;13.418;2023-04-01T13:57:36;7.50;;;7.00;;
22826;SDS011;11580;52.562;13.418;2023-04-01T14:00:25;7.30;;;6.80;;
22826;SDS011;11580;52.562;13.418;2023-04-01T14:03:36;7.70;;;7.20;;
22826;SDS011;11580;52.562;13.418;2023-04-01T14:07:08;7.90;;;7.30;;
22826;SDS011;11580;52.562;13.418;2023-04-01T14:10:01;7.97;;;7.37;;
22826;SDS011;11580;52.562;13.418;2023-04-01T14:12:47;6.00;;;5.57;;
22826;SDS011;11580;52.562;13.418;2023-04-01T14:15:29;5.87;;;5.40;;
22826;SDS011;11580;52.562;13.418;2023-04-01T14:18:22;6.00;;;5.60;;
22826;SDS011;11580;52.562;13.418;2023-04-01T14:21:12;5.90;;;5.40;;
22826;SDS011;11580;52.562;13.418;2023-04-01T14:23:52;6.20;;;5.73;;
22826;SDS011;11580;52.562;13.418;2023-04-01T14:30:02;5.90;;;5.40;;
22826;SDS011;11580;52.562;13.418;2023-04-01T14:32:49;6.00;;;5.57;;
22826;SDS011;11580;52.562;13.418;2023-04-01T14:35:33;6.03;;;5.63;;
22826;SDS011;11580;52.562;13.418;2023-04-01T14:38:24;6.80;;;6.20;;
22826;SDS011;11580;52.562;13.418;2023-04-01T14:41:25;5.93;;;5.53;;
22826;SDS011;11580;52.562;13.418;2023-04-01T14:44:21;6.17;;;5.67;;
22826;SDS011;11580;52.562;13.418;2023-04-01T14:47:11;6.50;;;6.00;;
22826;SDS011;11580;52.562;13.418;2023-04-01T14:50:09;5.77;;;5.27;;
22826;SDS011;11580;52.562;13.418;2023-04-01T14:52:54;5.63;;;5.13;;
22826;SDS011;11580;52.562;13.418;2023-04-01T14:55:36;5.07;;;4.77;;
22826;SDS011;11580;52.562;13.418;2023-04-01T14:58:17;5.17;;;4.83;;
22826;SDS011;11580;52.562;13.418;2023-04-01T15:00:48;5.07;;;4.70;;
22826;SDS011;11580;52.562;13.418;2023-04-01T15:03:36;5.80;;;5.30;;
22826;SDS011;11580;52.562;13.418;2023-04-01T15:06:30;5.30;;;4.90;;
22826;SDS011;11580;52.562;13.418;2023-04-01T15:09:23;6.70;;;5.70;;
22826;SDS011;11580;52.562;13.418;2023-04-01T15:12:04;6.77;;;6.17;;
22826;SDS011;11580;52.562;13.418;2023-04-01T15:14:51;7.30;;;6.60;;
22826;SDS011;11580;52.562;13.418;2023-04-01T15:17:43;6.33;;;5.77;;
22826;SDS011;11580;52.562;13.418;2023-04-01T15:20:40;6.00;;;5.60;;
22826;SDS011;11580;52.562;13.418;2023-04-01T15:23:45;6.27;;;5.77;;
22826;SDS011;11580;52.562;13.418;2023-04-01T15:26:33;6.97;;;6.30;;
22826;SDS011;11580;52.562;13.418;2023-04-01T15:29:45;7.70;;;7.10;;
22826;SDS011;11580;52.562;13.418;2023-04-01T15:32:44;7.83;;;7.23;;
22826;SDS011;11580;52.562;13.418;2023-04-01T15:35:30;8.10;;;7.40;;
22826;SDS011;11580;52.562;13.418;2023-04-01T15:38:11;7.90;;;7.20;;
22826;SDS011;11580;52.562;13.418;2023-04-01T15:41:00;7.73;;;7.03;;
22826;SDS011;11580;52.562;13.418;2023-04-01T15:43:40;7.87;;;7.27;;
22826;SDS011;11580;52.562;13.418;2023-04-01T15:46:24;8.17;;;7.50;;
22826;SDS011;11580;52.562;13.418;2023-04-01T15:49:10;8.47;;;7.87;;
22826;SDS011;11580;52.562;13.418;2023-04-01T15:52:03;8.10;;;7.50;;
22826;SDS011;11580;52.562;13.418;2023-04-01T15:57:47;6.93;;;6.23;;
22826;SDS011;11580;52.562;13.418;2023-04-01T16:00:44;6.60;;;6.13;;
22826;SDS011;11580;52.562;13.418;2023-04-01T16:03:24;6.97;;;6.47;;
22826;SDS011;11580;52.562;13.418;2023-04-01T16:06:11;6.67;;;6.17;;
22826;SDS011;11580;52.562;13.418;2023-04-01T16:09:08;6.07;;;5.60;;
22826;SDS011;11580;52.562;13.418;2023-04-01T16:11:57;6.50;;;5.90;;
22826;SDS011;11580;52.562;13.418;2023-04-01T16:14:35;6.37;;;5.80;;
22826;SDS011;11580;52.562;13.418;2023-04-01T16:17:20;5.80;;;5.40;;
22826;SDS011;11580;52.562;13.418;2023-04-01T16:20:03;6.27;;;5.83;;
22826;SDS011;11580;52.562;13.418;2023-04-01T16:22:49;6.63;;;6.03;;
22826;SDS011;11580;52.562;13.418;2023-04-01T16:25:29;5.00;;;4.60;;
22826;SDS011;11580;52.562;13.418;2023-04-01T16:28:12;4.83;;;4.47;;
22826;SDS011;11580;52.562;13.418;2023-04-01T16:30:54;5.30;;;4.90;;
22826;SDS011;11580;52.562;13.418;2023-04-01T16:33:30;5.70;;;5.30;;
22826;SDS011;11580;52.562;13.418;2023-04-01T16:36:10;6.00;;;5.50;;
22826;SDS011;11580;52.562;13.418;2023-04-01T16:38:52;5.53;;;5.03;;
22826;SDS011;11580;52.562;13.418;2023-04-01T16:41:48;5.03;;;4.73;;
22826;SDS011;11580;52.562;13.418;2023-04-01T16:44:21;4.90;;;4.50;;
22826;SDS011;11580;52.562;13.418;2023-04-01T16:46:52;5.50;;;5.10;;
22826;SDS011;11580;52.562;13.418;2023-04-01T16:49:24;5.57;;;5.17;;
22826;SDS011;11580;52.562;13.418;2023-04-01T16:52:12;6.07;;;5.57;;
22826;SDS011;11580;52.562;13.418;2023-04-01T16:54:43;5.20;;;4.70;;
22826;SDS011;11580;52.562;13.418;2023-04-01T16:57:25;4.90;;;4.60;;
22826;SDS011;11580;52.562;13.418;2023-04-01T17:00:09;4.57;;;4.20;;
22826;SDS011;11580;52.562;13.418;2023-04-01T17:02:51;6.23;;;5.60;;
22826;SDS011;11580;52.562;13.418;2023-04-01T17:05:39;5.20;;;4.80;;
22826;SDS011;11580;52.562;13.418;2023-04-01T17:08:22;4.60;;;4.30;;
22826;SDS011;11580;52.562;13.418;2023-04-01T17:11:06;5.90;;;5.40;;
22826;SDS011;11580;52.562;13.418;2023-04-01T17:13:49;5.20;;;4.77;;
22826;SDS011;11580;52.562;13.418;2023-04-01T17:16:34;6.33;;;5.80;;
22826;SDS011;11580;52.562;13.418;2023-04-01T17:19:23;6.10;;;5.70;;
22826;SDS011;11580;52.562;13.418;2023-04-01T17:22:16;5.70;;;5.20;;
22826;SDS011;11580;52.562;13.418;2023-04-01T17:25:01;6.13;;;5.63;;
22826;SDS011;11580;52.562;13.418;2023-04-01T17:27:48;5.67;;;5.17;;
22826;SDS011;11580;52.562;13.418;2023-04-01T17:30:27;5.67;;;5.20;;
22826;SDS011;11580;52.562;13.418;2023-04-01T17:33:15;6.60;;;6.10;;